Terminal Aerodrome Forecast
Issued by NWS Oklahoma City, OK

Current Version | Previous Version | Text Only | Print | Product List | Glossary On
Versions: 1 2 3 4 5 6 7 8 9 10 11 12 13 14 15 16 17 18 19 20 21 22 23 24 25 26 27 28 29 30 31 32 33 34 35 36 37 38 39 40 41
000
FTUS44 KOUN 280843 AAB
TAFOUN
TAF AMD
KOUN 280843Z 2809/2906 15006KT P6SM SCT060 BKN200
     FM281030 15010KT 6SM -TSRA BR FEW015 BKN050CB
      TEMPO 2811/2813 27015G22KT 2SM +TSRA FEW007 OVC015CB
     FM281400 15012KT P6SM OVC025
     FM281800 18013G18KT P6SM BKN030 PROB30 2818/2822 6SM -TSRA
      BKN030CB=

USA.gov is the U.S. government's official web portal to all federal, state and local government web resources and services.